Time;durP1;ratioP1;P1;durP2;ratioP2;P2;SDS_P1;SDS_P2;PMS_P1;PMS_P2;Temp;Humidity;BMP_temperature;BMP_pressure;BME280_temperature;BME280_humidity;BME280_pressure;Samples;Min_cycle;Max_cycle;Signal;HPM_P1;HPM_P2
2023/01/24 00:01:41;;;;;;;48.10;27.55;;;4.50;99.90;;;;;;5044594;28;20059;-72
2023/01/24 00:04:07;;;;;;;51.35;28.45;;;4.60;99.90;;;;;;5046062;28;20049;-71
2023/01/24 00:06:33;;;;;;;47.70;27.88;;;4.50;99.90;;;;;;5045346;28;20091;-71
2023/01/24 00:08:58;;;;;;;53.03;28.60;;;4.40;99.90;;;;;;5047052;28;20036;-72
2023/01/24 00:11:24;;;;;;;49.75;28.67;;;4.50;99.90;;;;;;5047773;28;20028;-71
2023/01/24 00:13:50;;;;;;;49.58;27.98;;;4.40;99.90;;;;;;5043752;28;20028;-71
2023/01/24 00:16:20;;;;;;;45.63;27.75;;;4.50;99.90;;;;;;5042361;28;20072;-72
2023/01/24 00:18:46;;;;;;;46.97;28.42;;;4.50;99.90;;;;;;5042572;28;20050;-71
2023/01/24 00:21:18;;;;;;;43.92;25.73;;;4.40;99.90;;;;;;5043926;28;20028;-71
2023/01/24 00:23:50;;;;;;;46.63;27.10;;;4.50;99.90;;;;;;5043195;28;20029;-72
2023/01/24 00:26:17;;;;;;;45.53;25.43;;;4.50;99.90;;;;;;5043691;28;20740;-72
2023/01/24 00:28:45;;;;;;;43.28;24.92;;;4.50;99.90;;;;;;5043674;28;20115;-71
2023/01/24 00:31:10;;;;;;;47.00;26.40;;;4.50;99.90;;;;;;5043496;28;20021;-72
2023/01/24 00:33:36;;;;;;;46.63;27.25;;;4.60;99.90;;;;;;5048466;28;20036;-72
2023/01/24 00:36:02;;;;;;;49.83;26.30;;;4.50;99.90;;;;;;5044184;28;20031;-72
2023/01/24 00:38:29;;;;;;;46.17;25.40;;;4.50;99.90;;;;;;5044512;28;20028;-72
2023/01/24 00:40:55;;;;;;;46.22;25.98;;;4.40;99.90;;;;;;5046312;28;20021;-72
2023/01/24 00:43:21;;;;;;;48.00;27.10;;;4.40;99.90;;;;;;5046786;28;20025;-72
2023/01/24 00:45:46;;;;;;;44.38;26.23;;;4.40;99.90;;;;;;5045743;28;20052;-72
2023/01/24 00:48:13;;;;;;;43.65;25.45;;;4.40;99.90;;;;;;5039386;28;20033;-75
2023/01/24 00:50:39;;;;;;;41.88;23.77;;;4.40;99.90;;;;;;5046504;28;20033;-71
2023/01/24 00:53:04;;;;;;;44.60;24.77;;;4.40;99.90;;;;;;5041931;28;20123;-71
2023/01/24 00:55:30;;;;;;;46.65;26.63;;;4.30;99.90;;;;;;5043099;28;20075;-72
2023/01/24 00:57:56;;;;;;;40.67;24.77;;;4.20;99.90;;;;;;5045979;28;20024;-72
2023/01/24 01:00:22;;;;;;;42.97;24.55;;;4.30;99.90;;;;;;5045389;28;20055;-71
2023/01/24 01:02:49;;;;;;;44.85;26.23;;;4.40;99.90;;;;;;5044893;28;20056;-71
2023/01/24 01:05:15;;;;;;;40.58;24.73;;;4.50;99.90;;;;;;5042194;28;20032;-71
2023/01/24 01:07:41;;;;;;;42.58;24.98;;;4.50;99.90;;;;;;5045536;28;20025;-71
2023/01/24 01:10:07;;;;;;;40.15;23.88;;;4.50;99.90;;;;;;5040293;28;20351;-71
2023/01/24 01:12:33;;;;;;;40.58;24.83;;;4.50;99.90;;;;;;5041138;28;20037;-71
2023/01/24 01:14:58;;;;;;;42.72;23.10;;;4.50;99.90;;;;;;5045598;28;20029;-71
2023/01/24 01:17:26;;;;;;;37.58;22.27;;;4.40;99.90;;;;;;5043767;28;20611;-72
2023/01/24 01:19:52;;;;;;;36.85;21.70;;;4.40;99.90;;;;;;5046722;28;20021;-72
2023/01/24 01:22:18;;;;;;;37.10;21.23;;;4.40;99.90;;;;;;5047565;28;20147;-72
2023/01/24 01:24:44;;;;;;;38.38;21.20;;;4.50;99.90;;;;;;5044668;28;20112;-72
2023/01/24 01:27:09;;;;;;;36.22;21.77;;;4.30;99.90;;;;;;5044740;28;20116;-72
2023/01/24 01:29:35;;;;;;;38.60;21.65;;;4.30;99.90;;;;;;5045960;28;20021;-72
2023/01/24 01:32:01;;;;;;;34.63;20.20;;;4.40;99.90;;;;;;5043234;28;20040;-72
2023/01/24 01:34:27;;;;;;;35.78;20.67;;;4.40;99.90;;;;;;5042299;28;20111;-72
2023/01/24 01:36:52;;;;;;;37.90;22.13;;;4.40;99.90;;;;;;5043142;28;20029;-71
2023/01/24 01:39:18;;;;;;;38.72;22.67;;;4.50;99.90;;;;;;5047302;28;20112;-72
2023/01/24 01:41:44;;;;;;;38.33;22.38;;;4.60;99.90;;;;;;5046808;28;20078;-72
2023/01/24 01:44:49;;;;;;;40.67;23.58;;;4.50;99.90;;;;;;5046064;28;20059;-72
2023/01/24 01:47:30;;;;;;;36.30;21.27;;;4.40;99.90;;;;;;5042832;28;20033;-72
2023/01/24 01:50:03;;;;;;;32.92;20.75;;;4.50;99.90;;;;;;5043529;28;20033;-72
2023/01/24 01:52:34;;;;;;;37.65;20.88;;;4.40;99.90;;;;;;5045225;28;20045;-72
2023/01/24 01:55:07;;;;;;;38.33;21.63;;;4.40;99.90;;;;;;5044864;28;20063;-72
2023/01/24 01:57:35;;;;;;;35.92;21.10;;;4.40;99.90;;;;;;5044557;28;20028;-72
2023/01/24 02:00:06;;;;;;;36.05;22.25;;;4.50;99.90;;;;;;5043629;28;20473;-72
2023/01/24 02:02:32;;;;;;;33.73;20.53;;;4.50;99.90;;;;;;5046563;28;20029;-72
2023/01/24 02:05:04;;;;;;;39.55;21.92;;;4.30;99.90;;;;;;5046063;28;20690;-72
2023/01/24 02:07:50;;;;;;;36.88;21.30;;;4.30;99.90;;;;;;5044494;28;20470;-71
2023/01/24 02:10:19;;;;;;;38.47;20.98;;;4.30;99.90;;;;;;5046073;28;20373;-72
2023/01/24 02:12:47;;;;;;;39.42;20.95;;;4.30;99.90;;;;;;5043985;28;20033;-72
2023/01/24 02:18:03;;;;;;;36.10;20.27;;;4.30;99.90;;;;;;5046671;28;20047;-72
2023/01/24 02:20:31;;;;;;;35.17;20.50;;;4.40;99.90;;;;;;5047693;28;20024;-72
2023/01/24 02:23:16;;;;;;;35.35;20.67;;;4.50;99.90;;;;;;5047013;28;20029;-72
2023/01/24 02:26:09;;;;;;;36.25;20.25;;;4.50;99.90;;;;;;5048682;28;20449;-72
2023/01/24 02:28:36;;;;;;;36.42;20.50;;;4.50;99.90;;;;;;5049932;28;20037;-72
2023/01/24 02:31:03;;;;;;;39.58;22.42;;;4.40;99.90;;;;;;5067443;28;20029;-72
2023/01/24 02:33:30;;;;;;;36.45;21.33;;;4.40;99.90;;;;;;5050040;28;20040;-72
2023/01/24 02:36:35;;;;;;;35.50;20.83;;;4.50;99.90;;;;;;5047824;28;20052;-72
2023/01/24 02:39:15;;;;;;;39.33;23.40;;;4.40;99.90;;;;;;5050054;28;20653;-72
2023/01/24 02:41:52;;;;;;;37.80;20.85;;;4.40;99.90;;;;;;5048857;28;20709;-72
2023/01/24 02:44:29;;;;;;;37.97;22.00;;;4.40;99.90;;;;;;5046340;28;20029;-72
2023/01/24 02:46:55;;;;;;;40.40;22.05;;;4.40;99.90;;;;;;5047796;28;20091;-72
2023/01/24 02:49:20;;;;;;;36.50;21.40;;;4.40;99.90;;;;;;5044999;28;20377;-73
2023/01/24 02:54:30;;;;;;;36.83;21.92;;;4.40;99.90;;;;;;5049817;28;20085;-72
2023/01/24 02:59:39;;;;;;;40.25;22.20;;;4.30;99.90;;;;;;5045334;28;20044;-72
2023/01/24 03:02:05;;;;;;;39.15;22.35;;;4.40;99.90;;;;;;5048188;28;20543;-72
2023/01/24 03:04:31;;;;;;;41.90;22.85;;;4.40;99.90;;;;;;5049669;28;20080;-72
2023/01/24 03:06:56;;;;;;;42.58;23.67;;;4.40;99.90;;;;;;5045327;28;20102;-72
2023/01/24 03:09:33;;;;;;;39.08;23.20;;;4.50;99.90;;;;;;5050898;28;20527;-72
2023/01/24 03:36:40;;;;;;;46.85;25.55;;;4.30;99.90;;;;;;5043328;28;20052;-72
2023/01/24 03:41:53;;;;;;;52.50;28.25;;;4.10;99.90;;;;;;5045966;28;20027;-72
2023/01/24 03:44:19;;;;;;;50.63;27.92;;;4.00;99.90;;;;;;5044209;28;20100;-72
2023/01/24 03:46:44;;;;;;;52.55;28.63;;;4.10;99.90;;;;;;5045488;28;20413;-72
2023/01/24 03:49:10;;;;;;;53.90;29.73;;;4.20;99.90;;;;;;5043277;28;20109;-72
2023/01/24 03:54:20;;;;;;;48.10;28.38;;;4.20;99.90;;;;;;5044238;28;20117;-73
2023/01/24 03:56:45;;;;;;;49.42;28.30;;;4.10;99.90;;;;;;5052275;28;20108;-72
2023/01/24 03:59:11;;;;;;;54.67;28.88;;;4.10;99.90;;;;;;5050439;28;20021;-72
2023/01/24 04:01:36;;;;;;;52.53;28.35;;;4.10;99.90;;;;;;5050497;28;20634;-72
2023/01/24 04:04:02;;;;;;;51.22;27.90;;;4.20;99.90;;;;;;5044464;28;20026;-72
2023/01/24 04:06:28;;;;;;;49.80;27.08;;;4.20;99.90;;;;;;5043039;28;20029;-72
2023/01/24 04:08:54;;;;;;;54.35;29.05;;;4.20;99.90;;;;;;5044631;28;20031;-72
2023/01/24 04:11:19;;;;;;;52.90;30.00;;;4.20;99.90;;;;;;5043023;28;20030;-72
2023/01/24 04:13:45;;;;;;;58.42;32.92;;;4.20;99.90;;;;;;5043404;28;20017;-72
2023/01/24 04:16:10;;;;;;;59.85;31.50;;;4.20;99.90;;;;;;5042834;28;20036;-72
2023/01/24 04:18:36;;;;;;;52.75;29.02;;;4.10;99.90;;;;;;5043982;28;20017;-72
2023/01/24 04:21:03;;;;;;;54.75;30.50;;;4.10;99.90;;;;;;5045495;28;20330;-72
2023/01/24 04:23:30;;;;;;;57.90;32.30;;;4.10;99.90;;;;;;5043459;28;20012;-72
2023/01/24 04:25:57;;;;;;;56.78;33.05;;;4.10;99.90;;;;;;5043656;28;20048;-71
2023/01/24 04:28:24;;;;;;;59.63;33.22;;;4.10;99.90;;;;;;5047806;28;20112;-72
2023/01/24 04:30:56;;;;;;;57.30;32.10;;;4.10;99.90;;;;;;5041456;28;20044;-72
2023/01/24 04:33:22;;;;;;;60.20;32.97;;;4.10;99.90;;;;;;5043626;28;20492;-72
2023/01/24 04:35:47;;;;;;;60.30;32.47;;;4.10;99.90;;;;;;5043014;28;20084;-72
2023/01/24 04:38:13;;;;;;;57.67;33.05;;;4.10;99.90;;;;;;5044586;28;20064;-72
2023/01/24 04:40:39;;;;;;;63.60;33.70;;;4.20;99.90;;;;;;5042437;28;20020;-72
2023/01/24 04:43:04;;;;;;;60.38;33.47;;;4.20;99.90;;;;;;5037967;28;20025;-72
2023/01/24 04:45:30;;;;;;;58.90;32.97;;;4.10;99.90;;;;;;5036344;28;20469;-72
2023/01/24 04:47:55;;;;;;;63.88;34.60;;;4.20;99.90;;;;;;5044690;28;20033;-72
2023/01/24 04:50:21;;;;;;;60.97;34.63;;;4.20;99.90;;;;;;5032723;28;20421;-72
2023/01/24 04:52:47;;;;;;;63.60;35.45;;;4.20;99.90;;;;;;5053128;28;20029;-71
2023/01/24 04:55:13;;;;;;;59.28;34.08;;;4.20;99.90;;;;;;5035711;28;20033;-71
2023/01/24 04:57:38;;;;;;;67.72;38.00;;;4.10;99.90;;;;;;5042029;28;20029;-72
2023/01/24 05:00:05;;;;;;;58.40;34.28;;;4.10;99.90;;;;;;5052758;28;20041;-72
2023/01/24 05:02:32;;;;;;;59.47;34.22;;;4.20;99.90;;;;;;5052597;28;20482;-72
2023/01/24 05:04:57;;;;;;;57.15;31.55;;;4.20;99.90;;;;;;5051997;28;20478;-72
2023/01/24 05:07:23;;;;;;;59.28;33.55;;;4.30;99.90;;;;;;5052988;28;20233;-72
2023/01/24 05:09:49;;;;;;;65.97;36.58;;;4.30;99.90;;;;;;5053011;28;20389;-72
2023/01/24 05:12:14;;;;;;;61.88;34.60;;;4.30;99.90;;;;;;5052793;28;20021;-72
2023/01/24 05:14:40;;;;;;;59.08;33.28;;;4.30;99.90;;;;;;5040318;28;20069;-72
2023/01/24 05:17:05;;;;;;;60.58;32.95;;;4.20;99.90;;;;;;5032677;28;20320;-72
2023/01/24 05:19:31;;;;;;;58.35;33.38;;;4.20;99.90;;;;;;5033150;28;20033;-72
2023/01/24 05:21:57;;;;;;;59.25;33.75;;;4.20;99.90;;;;;;5043376;28;20504;-72
2023/01/24 05:24:22;;;;;;;57.95;32.88;;;4.20;99.90;;;;;;5052535;28;20021;-72
2023/01/24 05:26:48;;;;;;;60.45;34.65;;;4.20;99.90;;;;;;5052102;28;20159;-72
2023/01/24 05:29:13;;;;;;;56.90;31.98;;;4.30;99.90;;;;;;5041280;28;20382;-72
2023/01/24 05:31:39;;;;;;;57.88;33.17;;;4.20;99.90;;;;;;5042906;28;20156;-72
2023/01/24 05:34:05;;;;;;;52.60;30.52;;;4.20;99.90;;;;;;5031030;28;20076;-72
2023/01/24 05:36:31;;;;;;;52.67;31.48;;;4.10;99.90;;;;;;5032552;28;20025;-72
2023/01/24 05:38:57;;;;;;;56.88;31.23;;;4.10;99.90;;;;;;5031838;28;20025;-72
2023/01/24 05:41:22;;;;;;;53.50;31.42;;;4.00;99.90;;;;;;5033218;28;20029;-72
2023/01/24 05:43:49;;;;;;;53.97;31.98;;;4.10;99.90;;;;;;5032429;28;20056;-72
2023/01/24 05:46:17;;;;;;;53.03;31.05;;;4.20;99.90;;;;;;5032925;28;20061;-72
2023/01/24 05:48:43;;;;;;;54.90;32.78;;;4.20;99.90;;;;;;5032883;28;20107;-72
2023/01/24 05:51:12;;;;;;;54.95;31.50;;;4.10;99.90;;;;;;5035443;28;20033;-72
2023/01/24 05:53:39;;;;;;;57.05;33.13;;;4.20;99.90;;;;;;5052289;28;20059;-72
2023/01/24 05:56:09;;;;;;;55.22;31.75;;;4.20;99.90;;;;;;5052489;28;20033;-72
2023/01/24 05:58:37;;;;;;;50.22;30.63;;;4.20;99.90;;;;;;5062358;28;20100;-72
2023/01/24 06:01:10;;;;;;;50.70;30.25;;;4.10;99.90;;;;;;5057994;28;20033;-72
2023/01/24 06:03:40;;;;;;;50.92;30.55;;;4.10;99.90;;;;;;5043763;28;20033;-72
2023/01/24 06:06:07;;;;;;;51.65;29.65;;;4.10;99.90;;;;;;5040587;28;20021;-72
2023/01/24 06:08:33;;;;;;;54.17;30.98;;;4.10;99.90;;;;;;5058074;28;20021;-72
2023/01/24 06:11:09;;;;;;;52.10;31.42;;;4.10;99.90;;;;;;5051940;28;20028;-73
2023/01/24 06:13:35;;;;;;;51.97;31.73;;;4.10;99.90;;;;;;5051648;28;20021;-72
2023/01/24 06:16:06;;;;;;;57.85;33.90;;;4.20;99.90;;;;;;5052319;28;20024;-72
2023/01/24 06:18:32;;;;;;;59.40;33.05;;;4.30;99.90;;;;;;5052198;28;20417;-72
2023/01/24 06:20:58;;;;;;;59.05;32.47;;;4.20;99.90;;;;;;5050760;28;20025;-72
2023/01/24 06:23:26;;;;;;;57.30;32.53;;;4.20;99.90;;;;;;5032617;28;20076;-72
2023/01/24 06:25:52;;;;;;;63.17;35.35;;;4.10;99.90;;;;;;5038394;28;20048;-73
2023/01/24 06:28:18;;;;;;;59.72;34.00;;;4.00;99.90;;;;;;5053706;28;20013;-73
2023/01/24 06:30:50;;;;;;;61.95;33.67;;;4.10;99.90;;;;;;5052106;28;20056;-73
2023/01/24 06:33:51;;;;;;;61.83;34.75;;;4.10;99.90;;;;;;5050611;28;20097;-72
2023/01/24 06:36:20;;;;;;;60.35;32.67;;;4.10;99.90;;;;;;5021887;28;20099;-72
2023/01/24 06:38:46;;;;;;;66.90;36.35;;;4.20;99.90;;;;;;5031647;28;20429;-72
2023/01/24 06:41:16;;;;;;;63.78;36.72;;;4.10;99.90;;;;;;5032573;28;20160;-72
2023/01/24 06:43:43;;;;;;;60.10;34.85;;;4.00;99.90;;;;;;5034998;28;20021;-72
2023/01/24 06:46:10;;;;;;;64.38;35.40;;;4.00;99.90;;;;;;5031999;28;20037;-72
2023/01/24 06:48:36;;;;;;;67.35;37.78;;;4.10;99.90;;;;;;5032142;28;20017;-72
2023/01/24 06:51:01;;;;;;;62.17;35.80;;;4.10;99.90;;;;;;5030805;28;20112;-72
2023/01/24 06:53:27;;;;;;;59.97;33.88;;;4.10;99.90;;;;;;5031851;28;20488;-72
2023/01/24 06:55:53;;;;;;;61.80;33.92;;;4.10;99.90;;;;;;5065848;28;20432;-72
2023/01/24 06:58:18;;;;;;;61.00;34.45;;;4.10;99.90;;;;;;5071730;28;20036;-72
2023/01/24 07:00:44;;;;;;;66.30;34.47;;;4.10;99.90;;;;;;5071812;28;20354;-73
2023/01/24 07:03:09;;;;;;;57.63;32.78;;;4.10;99.90;;;;;;5072361;28;20036;-72
2023/01/24 07:05:36;;;;;;;55.60;30.75;;;4.20;99.90;;;;;;5075497;28;20033;-74
2023/01/24 07:08:03;;;;;;;54.38;30.90;;;4.10;99.90;;;;;;5052154;28;20029;-72
2023/01/24 07:10:29;;;;;;;51.80;30.73;;;4.10;99.90;;;;;;5035434;28;20458;-73
2023/01/24 07:12:55;;;;;;;50.97;30.45;;;4.10;99.90;;;;;;5040343;28;20028;-72
2023/01/24 07:15:20;;;;;;;52.30;30.55;;;4.10;99.90;;;;;;5055370;28;20025;-72
2023/01/24 07:17:46;;;;;;;52.83;30.25;;;4.10;99.90;;;;;;5055493;28;20086;-72
2023/01/24 07:20:13;;;;;;;52.70;30.92;;;4.20;99.90;;;;;;5057578;28;20032;-72
2023/01/24 07:22:40;;;;;;;57.00;33.47;;;4.10;99.90;;;;;;5061278;28;20033;-72
2023/01/24 07:25:14;;;;;;;55.67;31.98;;;4.00;99.90;;;;;;5054933;28;20532;-72
2023/01/24 07:27:43;;;;;;;51.17;30.70;;;4.00;99.90;;;;;;5049306;28;20053;-72
2023/01/24 07:30:10;;;;;;;56.35;32.00;;;4.00;99.90;;;;;;5035219;28;20032;-72
2023/01/24 07:32:36;;;;;;;53.53;30.83;;;4.10;99.90;;;;;;5034276;28;20543;-72
2023/01/24 07:35:02;;;;;;;53.97;31.60;;;4.10;99.90;;;;;;5035006;28;20030;-72
2023/01/24 07:37:28;;;;;;;51.65;31.15;;;4.10;99.90;;;;;;5034987;28;20100;-72
2023/01/24 07:39:54;;;;;;;51.47;28.77;;;4.10;99.90;;;;;;5044162;28;20039;-72
2023/01/24 07:42:20;;;;;;;53.15;32.00;;;4.20;99.90;;;;;;5049971;28;20025;-72
2023/01/24 07:44:45;;;;;;;46.83;27.23;;;4.30;99.90;;;;;;5073138;28;20025;-72
2023/01/24 07:47:11;;;;;;;49.72;28.27;;;4.20;99.90;;;;;;5073978;28;20029;-72
2023/01/24 07:49:36;;;;;;;44.30;26.27;;;4.30;99.90;;;;;;5074877;28;20032;-72
2023/01/24 07:52:02;;;;;;;46.03;26.80;;;4.30;99.90;;;;;;5059933;28;20111;-72
2023/01/24 07:54:28;;;;;;;50.03;25.75;;;4.20;99.90;;;;;;5044347;28;20358;-72
2023/01/24 07:56:53;;;;;;;48.67;28.48;;;4.20;99.90;;;;;;5051358;28;20024;-72
2023/01/24 07:59:19;;;;;;;47.67;27.52;;;4.10;99.90;;;;;;5054679;28;20473;-72
2023/01/24 08:01:44;;;;;;;46.15;27.88;;;4.20;99.90;;;;;;5047490;28;20032;-72
2023/01/24 08:04:10;;;;;;;45.33;26.40;;;4.10;99.90;;;;;;5034356;28;20105;-72
2023/01/24 08:06:36;;;;;;;44.03;25.65;;;4.20;99.90;;;;;;5034251;28;20033;-72
2023/01/24 08:09:02;;;;;;;42.85;24.67;;;4.10;99.90;;;;;;5050189;28;20055;-72
2023/01/24 08:11:27;;;;;;;40.58;24.30;;;4.20;99.90;;;;;;5054108;28;20024;-72
2023/01/24 08:13:54;;;;;;;35.45;22.02;;;4.20;99.90;;;;;;5046231;28;20029;-72
2023/01/24 08:16:23;;;;;;;41.22;23.92;;;4.20;99.90;;;;;;5033364;28;20437;-72
2023/01/24 08:18:49;;;;;;;32.78;20.77;;;4.10;99.90;;;;;;5050263;28;20492;-72
2023/01/24 08:21:14;;;;;;;34.67;21.70;;;4.00;99.90;;;;;;5074119;28;20028;-72
2023/01/24 08:23:40;;;;;;;35.70;22.00;;;4.00;99.90;;;;;;5044764;28;20108;-72
2023/01/24 08:26:06;;;;;;;36.25;21.52;;;4.00;99.90;;;;;;5053262;28;20025;-72
2023/01/24 08:28:32;;;;;;;34.42;20.85;;;4.10;99.90;;;;;;5039983;28;20025;-71
2023/01/24 08:30:58;;;;;;;33.97;20.30;;;4.00;99.90;;;;;;5050779;28;20021;-71
2023/01/24 08:33:24;;;;;;;30.58;18.60;;;4.00;99.90;;;;;;5048310;28;20090;-71
2023/01/24 08:35:50;;;;;;;31.77;20.05;;;4.00;99.90;;;;;;5042499;28;20026;-70
2023/01/24 08:38:16;;;;;;;31.85;19.90;;;4.10;99.90;;;;;;5042620;28;20084;-71
2023/01/24 08:40:43;;;;;;;35.10;20.10;;;4.00;99.90;;;;;;5052966;28;20102;-71
2023/01/24 08:43:08;;;;;;;32.85;20.30;;;4.10;99.90;;;;;;5051838;28;20078;-72
2023/01/24 08:45:34;;;;;;;33.55;20.10;;;4.10;99.90;;;;;;5052838;28;20444;-72
2023/01/24 08:48:00;;;;;;;32.30;19.30;;;4.10;99.90;;;;;;5053074;28;20033;-69
2023/01/24 08:50:27;;;;;;;31.75;19.73;;;4.10;99.90;;;;;;5068586;28;20526;-71
2023/01/24 08:52:56;;;;;;;33.50;18.92;;;4.00;99.90;;;;;;5051478;28;20100;-72
2023/01/24 08:55:22;;;;;;;31.48;19.83;;;4.00;99.90;;;;;;5053144;28;20490;-75
2023/01/24 08:57:48;;;;;;;34.88;21.13;;;4.00;99.90;;;;;;5051622;28;20013;-74
2023/01/24 09:00:14;;;;;;;31.98;19.00;;;4.00;99.90;;;;;;5053093;28;20032;-75
2023/01/24 09:02:40;;;;;;;34.58;19.63;;;4.00;99.90;;;;;;5052827;28;20508;-74
2023/01/24 09:05:07;;;;;;;32.42;19.42;;;4.00;99.90;;;;;;5053186;28;20025;-74
2023/01/24 09:07:35;;;;;;;31.88;19.60;;;3.90;99.90;;;;;;5042493;28;20390;-74
2023/01/24 09:10:02;;;;;;;33.47;19.45;;;3.90;99.90;;;;;;5033409;28;20021;-74
2023/01/24 09:12:27;;;;;;;34.63;20.25;;;3.90;99.90;;;;;;5032989;28;20027;-74
2023/01/24 09:14:53;;;;;;;32.22;19.35;;;4.10;99.90;;;;;;5032996;28;20104;-74
2023/01/24 09:17:19;;;;;;;36.17;22.40;;;4.00;99.90;;;;;;5033214;28;20029;-74
2023/01/24 09:19:44;;;;;;;36.05;22.60;;;4.00;99.90;;;;;;5053764;28;20204;-74
2023/01/24 09:22:10;;;;;;;36.42;21.92;;;3.90;99.90;;;;;;5047843;28;20036;-74
2023/01/24 09:24:35;;;;;;;38.95;24.30;;;4.00;99.90;;;;;;5038270;28;20104;-74
2023/01/24 09:27:01;;;;;;;45.42;26.35;;;4.00;99.90;;;;;;5042726;28;20037;-75
2023/01/24 09:29:26;;;;;;;41.08;24.92;;;4.10;99.90;;;;;;5033297;28;20021;-74
2023/01/24 09:31:54;;;;;;;41.13;25.73;;;4.10;99.90;;;;;;5041523;28;20033;-74
2023/01/24 09:34:20;;;;;;;37.70;24.20;;;4.10;99.90;;;;;;5052483;28;20021;-74
2023/01/24 09:36:48;;;;;;;37.88;23.33;;;4.10;99.90;;;;;;5051988;28;20151;-74
2023/01/24 09:39:14;;;;;;;40.25;23.73;;;4.20;99.90;;;;;;5052904;28;20029;-74
2023/01/24 09:42:16;;;;;;;42.28;25.23;;;4.30;99.90;;;;;;5050917;28;20024;-75
2023/01/24 09:44:45;;;;;;;44.25;25.95;;;4.20;99.90;;;;;;4157355;28;10000572;-74
2023/01/24 09:47:23;;;;;;;45.83;26.08;;;4.20;99.90;;;;;;5011048;28;20309;-74
2023/01/24 09:49:56;;;;;;;43.72;25.52;;;4.10;99.90;;;;;;5005626;28;20018;-73
2023/01/24 09:52:29;;;;;;;45.17;26.10;;;4.10;99.90;;;;;;5002544;28;20030;-73
2023/01/24 09:55:02;;;;;;;41.60;25.50;;;4.10;99.90;;;;;;4991801;28;20031;-73
2023/01/24 09:57:38;;;;;;;45.10;26.00;;;4.20;99.90;;;;;;4997471;28;20033;-73
2023/01/24 10:00:16;;;;;;;40.53;24.75;;;4.20;99.90;;;;;;4977613;28;20030;-72
2023/01/24 10:02:42;;;;;;;44.80;26.23;;;4.30;99.90;;;;;;4996827;28;20033;-73
2023/01/24 10:05:14;;;;;;;39.45;23.90;;;4.40;99.90;;;;;;4998182;28;20029;-71
2023/01/24 10:07:59;;;;;;;44.70;26.23;;;4.30;99.90;;;;;;5000595;28;20038;-72
2023/01/24 10:11:04;;;;;;;43.80;26.00;;;4.30;99.90;;;;;;4995653;28;20076;-73
2023/01/24 10:13:29;;;;;;;41.13;23.83;;;4.40;99.90;;;;;;5000338;28;20057;-73
2023/01/24 10:16:10;;;;;;;40.38;22.70;;;4.50;99.90;;;;;;5003229;28;20064;-72
2023/01/24 10:19:09;;;;;;;42.33;24.98;;;4.50;99.90;;;;;;5000230;28;20080;-73
2023/01/24 10:21:45;;;;;;;49.25;27.60;;;4.30;99.90;;;;;;5003050;28;20061;-73
2023/01/24 10:24:16;;;;;;;46.97;27.90;;;4.30;99.90;;;;;;5000291;28;20128;-72
2023/01/24 10:26:49;;;;;;;48.53;27.40;;;4.30;99.90;;;;;;4997959;28;20042;-74
2023/01/24 10:29:28;;;;;;;45.25;27.83;;;4.20;99.90;;;;;;4998747;28;20018;-76
2023/01/24 10:32:17;;;;;;;46.03;26.83;;;4.30;99.90;;;;;;5000234;28;20068;-72
2023/01/24 10:34:59;;;;;;;45.90;27.08;;;4.40;99.90;;;;;;4995589;28;20035;-72
2023/01/24 10:37:28;;;;;;;44.03;27.08;;;4.50;99.90;;;;;;5003728;28;20021;-70
2023/01/24 10:39:54;;;;;;;42.75;26.20;;;4.60;99.90;;;;;;5005493;28;20030;-71
2023/01/24 10:42:31;;;;;;;46.13;27.45;;;4.50;99.90;;;;;;5004021;28;20065;-73
2023/01/24 10:45:08;;;;;;;47.40;28.33;;;4.40;99.90;;;;;;5003021;28;20105;-72
2023/01/24 10:47:43;;;;;;;48.03;27.90;;;4.40;99.90;;;;;;5003380;28;22643;-72
2023/01/24 10:50:12;;;;;;;48.75;28.85;;;4.40;99.90;;;;;;5006132;28;20018;-73
2023/01/24 10:52:38;;;;;;;47.35;28.63;;;4.40;99.90;;;;;;5001704;28;20057;-72
2023/01/24 10:55:32;;;;;;;50.38;29.23;;;4.40;99.90;;;;;;5003338;28;20370;-73
2023/01/24 10:57:59;;;;;;;50.90;30.45;;;4.30;99.90;;;;;;5000747;28;20689;-72
2023/01/24 11:00:30;;;;;;;55.25;31.20;;;4.30;99.90;;;;;;5002255;28;20088;-71
2023/01/24 11:03:03;;;;;;;56.60;31.38;;;4.40;99.90;;;;;;5004456;28;20030;-73
2023/01/24 11:05:47;;;;;;;49.97;29.42;;;4.40;99.90;;;;;;5001562;28;20077;-72
2023/01/24 11:08:19;;;;;;;52.58;30.48;;;4.50;99.90;;;;;;5002451;28;20026;-72
2023/01/24 11:10:45;;;;;;;57.08;31.67;;;4.50;99.90;;;;;;5004183;28;20029;-71
2023/01/24 11:13:25;;;;;;;45.33;27.52;;;4.50;99.90;;;;;;5004466;28;20490;-73
2023/01/24 11:16:01;;;;;;;47.63;28.10;;;4.40;99.90;;;;;;5007861;28;20045;-72
2023/01/24 11:18:29;;;;;;;52.72;30.58;;;4.50;99.90;;;;;;5006745;28;20466;-72
2023/01/24 11:21:13;;;;;;;47.88;28.35;;;4.50;99.90;;;;;;5005727;28;20022;-71
2023/01/24 11:23:40;;;;;;;46.50;27.98;;;4.50;99.90;;;;;;5000303;28;20080;-72
2023/01/24 11:26:23;;;;;;;51.08;30.13;;;4.50;99.90;;;;;;5002831;28;20105;-71
2023/01/24 11:29:05;;;;;;;52.20;30.48;;;4.50;99.90;;;;;;4997909;28;20356;-72
2023/01/24 11:31:54;;;;;;;53.17;31.25;;;4.60;99.90;;;;;;5002092;28;20025;-72
2023/01/24 11:34:32;;;;;;;53.60;31.30;;;4.70;99.90;;;;;;5003129;28;20042;-71
2023/01/24 11:37:05;;;;;;;56.17;32.20;;;4.70;99.90;;;;;;5000401;28;20022;-71
2023/01/24 11:39:33;;;;;;;51.72;31.50;;;4.80;99.90;;;;;;5021978;28;20026;-74
2023/01/24 11:42:13;;;;;;;50.88;30.35;;;4.80;99.90;;;;;;5002230;28;20129;-70
2023/01/24 11:44:56;;;;;;;50.55;30.48;;;4.70;99.90;;;;;;5000953;28;20018;-70
2023/01/24 11:47:28;;;;;;;54.85;31.85;;;4.70;99.90;;;;;;5003979;28;20115;-71
2023/01/24 11:50:16;;;;;;;54.28;33.58;;;4.70;99.90;;;;;;5000694;28;20445;-71
2023/01/24 11:52:45;;;;;;;59.55;35.45;;;4.70;99.90;;;;;;4999626;28;20132;-71
2023/01/24 11:55:23;;;;;;;53.42;33.28;;;4.80;99.90;;;;;;5003997;28;20084;-70
2023/01/24 11:58:05;;;;;;;54.50;32.47;;;4.60;99.90;;;;;;5001946;28;20026;-72
2023/01/24 12:01:05;;;;;;;56.22;33.78;;;4.60;99.90;;;;;;5000089;28;20072;-72
2023/01/24 12:04:05;;;;;;;57.47;34.97;;;4.50;99.90;;;;;;5002484;28;20029;-71
2023/01/24 12:06:42;;;;;;;53.97;32.50;;;4.70;99.90;;;;;;5002271;28;20081;-72
2023/01/24 12:09:38;;;;;;;54.42;33.13;;;4.70;99.90;;;;;;5001130;28;20037;-72
2023/01/24 12:12:23;;;;;;;55.83;34.15;;;4.70;99.90;;;;;;5002642;28;20030;-73
2023/01/24 12:15:03;;;;;;;58.03;33.88;;;4.70;99.90;;;;;;5004973;28;20032;-73
2023/01/24 12:18:07;;;;;;;56.47;33.03;;;4.60;99.90;;;;;;5002773;28;20414;-72
2023/01/24 12:20:38;;;;;;;57.22;35.17;;;4.50;99.90;;;;;;5002637;28;20033;-72
2023/01/24 12:23:20;;;;;;;58.15;33.58;;;4.60;99.90;;;;;;5002442;28;20038;-72
2023/01/24 12:25:50;;;;;;;56.88;33.80;;;4.50;99.90;;;;;;5018647;28;20018;-72
2023/01/24 12:28:33;;;;;;;57.40;35.38;;;4.60;99.90;;;;;;5002559;28;20494;-72
2023/01/24 12:31:01;;;;;;;63.78;36.90;;;4.60;99.90;;;;;;5001719;28;20463;-71
2023/01/24 12:34:08;;;;;;;67.32;37.15;;;4.70;99.90;;;;;;5004905;28;20025;-71
2023/01/24 12:36:59;;;;;;;64.25;38.17;;;4.80;99.90;;;;;;5003732;28;20077;-72
2023/01/24 12:39:33;;;;;;;66.75;38.63;;;4.90;99.90;;;;;;5004634;28;20041;-72
2023/01/24 12:42:16;;;;;;;64.20;38.35;;;4.80;99.90;;;;;;4999531;28;20014;-71
2023/01/24 12:45:00;;;;;;;65.70;38.38;;;4.80;99.90;;;;;;5021966;28;20769;-72
2023/01/24 12:47:36;;;;;;;63.67;37.47;;;4.70;99.90;;;;;;4999422;28;20433;-76
2023/01/24 12:50:21;;;;;;;63.15;37.10;;;4.70;99.90;;;;;;5003319;28;20045;-71
2023/01/24 12:52:49;;;;;;;59.53;36.65;;;4.70;99.90;;;;;;5001119;28;20022;-71
2023/01/24 12:55:28;;;;;;;60.45;36.47;;;4.70;99.90;;;;;;5003394;28;20021;-71
2023/01/24 12:58:01;;;;;;;65.43;38.35;;;4.80;99.90;;;;;;5015146;28;20482;-74
2023/01/24 13:00:48;;;;;;;62.45;37.28;;;4.80;99.90;;;;;;5000179;28;20025;-71
2023/01/24 13:03:25;;;;;;;65.25;39.42;;;4.80;99.90;;;;;;4999000;28;20368;-74
2023/01/24 13:06:30;;;;;;;63.28;36.90;;;4.80;99.90;;;;;;5000878;28;20053;-73
2023/01/24 13:09:20;;;;;;;69.40;39.13;;;4.90;99.90;;;;;;5000631;28;20092;-71
2023/01/24 13:11:48;;;;;;;63.53;38.20;;;4.90;99.90;;;;;;4996269;28;20105;-73
2023/01/24 13:14:18;;;;;;;61.78;36.42;;;4.80;99.90;;;;;;4998034;28;20038;-71
2023/01/24 13:17:11;;;;;;;68.30;40.25;;;4.80;99.90;;;;;;5002242;28;20026;-71
2023/01/24 13:19:36;;;;;;;63.58;39.10;;;4.70;99.90;;;;;;4996126;28;20088;-71
2023/01/24 13:22:21;;;;;;;66.30;40.42;;;4.70;99.90;;;;;;5001532;28;21368;-71
2023/01/24 13:24:48;;;;;;;68.18;40.55;;;4.80;99.90;;;;;;5002701;28;20398;-70
2023/01/24 13:27:31;;;;;;;70.97;41.22;;;4.80;99.90;;;;;;4996235;28;20038;-71
2023/01/24 13:30:02;;;;;;;67.82;39.70;;;4.90;99.90;;;;;;4997891;28;20101;-74
2023/01/24 13:32:30;;;;;;;66.18;39.28;;;4.90;99.90;;;;;;4998918;28;20030;-72